createdAt,value
2017-12-16T00:00:24.687Z,95805.16
2017-12-16T00:05:40.186Z,95812.95
2017-12-16T00:08:10.644Z,95813.43
2017-12-16T00:10:39.666Z,95807.27
2017-12-16T00:13:07.237Z,95809.19
2017-12-16T00:15:35.662Z,95817.84
2017-12-16T00:18:03.207Z,95819.03
2017-12-16T00:20:30.714Z,95821.34
2017-12-16T00:22:58.271Z,95830.63
2017-12-16T00:25:25.822Z,95818.01
2017-12-16T00:27:53.343Z,95824.47
2017-12-16T00:30:21.102Z,95828.19
2017-12-16T00:32:48.661Z,95826.03
2017-12-16T00:35:16.918Z,95825.22
2017-12-16T00:37:44.717Z,95828.12
2017-12-16T00:40:12.261Z,95832.55
2017-12-16T00:42:39.821Z,95831.78
2017-12-16T00:45:08.606Z,95833.20
2017-12-16T00:47:36.167Z,95827.33
2017-12-16T00:50:03.679Z,95835.84
2017-12-16T00:52:31.362Z,95837.95
2017-12-16T00:54:58.872Z,95841.88
2017-12-16T00:57:26.403Z,95840.38
2017-12-16T00:59:54.373Z,95843.14
2017-12-16T01:02:21.922Z,95851.40
2017-12-16T01:04:49.431Z,95850.17
2017-12-16T01:07:17.253Z,95862.69
2017-12-16T01:09:44.762Z,95863.41
2017-12-16T01:12:12.270Z,95860.73
2017-12-16T01:14:39.935Z,95868.73
2017-12-16T01:17:07.442Z,95872.52
2017-12-16T01:19:34.958Z,95872.72
2017-12-16T01:22:02.713Z,95877.77
2017-12-16T01:24:30.219Z,95877.41
2017-12-16T01:26:57.723Z,95886.50
2017-12-16T01:29:25.286Z,95887.30
2017-12-16T01:31:52.790Z,95886.12
2017-12-16T01:34:32.056Z,95889.74
2017-12-16T01:37:11.570Z,95893.92
2017-12-16T01:39:39.126Z,95898.65
2017-12-16T01:42:06.634Z,95904.16
2017-12-16T01:44:34.138Z,95901.51
2017-12-16T01:47:01.975Z,95911.20
2017-12-16T01:49:29.516Z,95915.11
2017-12-16T01:51:57.030Z,95917.40
2017-12-16T01:54:24.839Z,95921.23
2017-12-16T01:56:52.399Z,95922.22
2017-12-16T01:59:19.914Z,95922.70
2017-12-16T02:01:47.720Z,95926.25
2017-12-16T02:04:15.347Z,95929.45
2017-12-16T02:06:43.018Z,95928.49
2017-12-16T02:09:10.994Z,95933.11
2017-12-16T02:11:38.501Z,95931.59
2017-12-16T02:14:06.006Z,95940.20
2017-12-16T02:16:33.791Z,95936.85
2017-12-16T02:19:01.303Z,95944.95
2017-12-16T02:21:28.814Z,95947.20
2017-12-16T02:23:56.386Z,95954.53
2017-12-16T02:26:23.928Z,95952.27
2017-12-16T02:28:51.497Z,95952.63
2017-12-16T02:31:19.054Z,95956.95
2017-12-16T02:33:46.565Z,95954.80
2017-12-16T02:36:14.079Z,95951.14
2017-12-16T02:38:41.927Z,95954.27
2017-12-16T02:41:09.503Z,95957.70
2017-12-16T02:43:37.967Z,95954.81
2017-12-16T02:46:05.832Z,95954.73
2017-12-16T02:48:33.339Z,95959.25
2017-12-16T02:51:00.857Z,95961.81
2017-12-16T02:53:28.414Z,95964.27
2017-12-16T02:55:55.967Z,95960.39
2017-12-16T02:58:23.827Z,95966.35
2017-12-16T03:00:51.571Z,95971.33
2017-12-16T03:03:19.073Z,95974.86
2017-12-16T03:05:46.606Z,95970.82
2017-12-16T03:08:14.151Z,95979.08
2017-12-16T03:10:41.664Z,95978.31
2017-12-16T03:13:09.174Z,95978.64
2017-12-16T03:15:36.858Z,95985.56
2017-12-16T03:18:04.411Z,95992.14
2017-12-16T03:20:31.967Z,95991.77
2017-12-16T03:22:59.706Z,95999.03
2017-12-16T03:25:27.218Z,96004.98
2017-12-16T03:27:54.727Z,96010.00
2017-12-16T03:30:22.487Z,96012.45
2017-12-16T03:32:50.002Z,96020.88
2017-12-16T03:35:17.529Z,96020.86
2017-12-16T03:37:45.085Z,96021.75
2017-12-16T03:40:12.749Z,96015.13
2017-12-16T03:42:40.253Z,96020.36
2017-12-16T03:45:07.971Z,96025.38
2017-12-16T03:47:35.475Z,96029.66
2017-12-16T03:50:02.983Z,96031.84
2017-12-16T03:52:30.542Z,96034.75
2017-12-16T03:54:58.046Z,96038.86
2017-12-16T03:57:25.558Z,96037.40
2017-12-16T03:59:53.297Z,96043.29
2017-12-16T04:02:20.817Z,96048.30
2017-12-16T04:04:48.426Z,96056.16
2017-12-16T04:07:16.265Z,96053.34
2017-12-16T04:09:43.777Z,96055.19
2017-12-16T04:12:11.281Z,96064.47
2017-12-16T04:14:39.404Z,96057.23
2017-12-16T04:17:06.954Z,96057.00
2017-12-16T04:19:34.462Z,96062.48
2017-12-16T04:22:02.890Z,96062.89
2017-12-16T04:24:30.394Z,96068.45
2017-12-16T04:26:57.922Z,96069.91
2017-12-16T04:29:26.079Z,96065.09
2017-12-16T04:31:54.048Z,96072.62
2017-12-16T04:34:22.017Z,96073.34
2017-12-16T04:36:49.754Z,96078.41
2017-12-16T04:39:17.271Z,96079.25
2017-12-16T04:41:44.785Z,96076.27
2017-12-16T04:44:12.868Z,96086.31
2017-12-16T04:46:40.407Z,96082.34
2017-12-16T04:49:07.913Z,96085.77
2017-12-16T04:51:35.647Z,96080.59
2017-12-16T04:54:03.208Z,96080.31
2017-12-16T04:56:30.717Z,96091.84
2017-12-16T04:58:58.263Z,96094.03
2017-12-16T05:01:25.771Z,96095.89
2017-12-16T05:03:53.275Z,96104.03
2017-12-16T05:06:20.822Z,96109.86
2017-12-16T05:08:48.351Z,96108.49
2017-12-16T05:11:15.857Z,96113.95
2017-12-16T05:13:43.679Z,96118.27
2017-12-16T05:16:11.238Z,96121.10
2017-12-16T05:18:38.754Z,96119.69
2017-12-16T05:21:06.742Z,96121.13
2017-12-16T05:23:34.258Z,96117.17
2017-12-16T05:26:01.761Z,96122.69
2017-12-16T05:28:29.545Z,96122.23
2017-12-16T05:30:57.056Z,96126.63
2017-12-16T05:33:24.606Z,96130.08
2017-12-16T05:35:52.401Z,96140.05
2017-12-16T05:38:19.962Z,96140.85
2017-12-16T05:40:47.473Z,96146.28
2017-12-16T05:43:15.296Z,96154.80
2017-12-16T05:45:43.428Z,96163.55
2017-12-16T05:48:10.939Z,96168.65
2017-12-16T05:50:38.723Z,96178.47
2017-12-16T05:53:06.263Z,96175.34
2017-12-16T05:55:33.770Z,96181.48
2017-12-16T05:58:01.393Z,96182.66
2017-12-16T06:00:29.350Z,96190.55
2017-12-16T06:02:56.909Z,96190.67
2017-12-16T06:05:25.492Z,96195.22
2017-12-16T06:07:53.051Z,96197.56
2017-12-16T06:10:20.558Z,96201.55
2017-12-16T06:12:48.169Z,96203.67
2017-12-16T06:15:15.728Z,96210.41
2017-12-16T06:17:43.288Z,96210.90
2017-12-16T06:20:11.063Z,96212.59
2017-12-16T06:22:38.610Z,96216.86
2017-12-16T06:25:06.170Z,96218.80
2017-12-16T06:27:34.007Z,96225.50
2017-12-16T06:30:01.521Z,96229.45
2017-12-16T06:32:29.051Z,96235.58
2017-12-16T06:34:56.637Z,96237.56
2017-12-16T06:37:24.169Z,96241.53
2017-12-16T06:39:51.727Z,96245.56
2017-12-16T06:42:19.468Z,96252.94
2017-12-16T06:44:48.370Z,96254.86
2017-12-16T06:47:16.351Z,96254.16
2017-12-16T06:49:43.940Z,96259.30
2017-12-16T06:52:12.083Z,96262.96
2017-12-16T06:54:39.643Z,96266.20
2017-12-16T06:57:07.308Z,96269.66
2017-12-16T06:59:34.852Z,96271.73
2017-12-16T07:02:02.358Z,96272.08
2017-12-16T07:04:30.084Z,96270.61
2017-12-16T07:06:57.953Z,96287.53
2017-12-16T07:09:25.926Z,96290.67
2017-12-16T07:11:53.682Z,96294.59
2017-12-16T07:14:21.193Z,96294.86
2017-12-16T07:16:48.808Z,96302.52
2017-12-16T07:19:16.566Z,96306.58
2017-12-16T07:21:44.066Z,96309.62
2017-12-16T07:24:11.580Z,96312.36
2017-12-16T07:26:39.344Z,96320.89
2017-12-16T07:29:06.848Z,96321.17
2017-12-16T07:31:35.179Z,96327.02
2017-12-16T07:34:02.738Z,96333.07
2017-12-16T07:36:30.257Z,96343.89
2017-12-16T07:38:57.765Z,96347.59
2017-12-16T07:41:25.338Z,96355.23
2017-12-16T07:43:52.913Z,96358.16
2017-12-16T07:46:20.421Z,96360.86
2017-12-16T07:48:48.195Z,96370.56
2017-12-16T07:51:16.495Z,96376.10
2017-12-16T07:53:44.001Z,96379.10
2017-12-16T07:56:12.356Z,96382.44
2017-12-16T07:58:39.856Z,96391.67
2017-12-16T08:01:07.382Z,96396.27
2017-12-16T08:03:35.290Z,96400.02
2017-12-16T08:06:02.799Z,96408.76
2017-12-16T08:08:30.477Z,96414.53
2017-12-16T08:10:59.561Z,96419.21
2017-12-16T08:13:28.105Z,96430.41
2017-12-16T08:15:56.460Z,96427.58
2017-12-16T08:18:27.409Z,96439.11
2017-12-16T08:20:56.208Z,96437.08
2017-12-16T08:23:23.751Z,96442.37
2017-12-16T08:25:53.799Z,96446.63
2017-12-16T08:28:22.248Z,96463.94
2017-12-16T08:30:54.725Z,96460.69
2017-12-16T08:33:22.287Z,96470.42
2017-12-16T08:35:50.440Z,96481.51
2017-12-16T08:38:18.212Z,96484.69
2017-12-16T08:40:46.746Z,96490.88
2017-12-16T08:43:14.935Z,96495.75
2017-12-16T08:45:44.176Z,96501.53
2017-12-16T08:48:12.552Z,96508.73
2017-12-16T08:50:41.768Z,96510.31
2017-12-16T08:53:09.587Z,96513.68
2017-12-16T08:55:39.759Z,96520.03
2017-12-16T08:58:08.215Z,96518.36
2017-12-16T09:00:36.130Z,96521.91
2017-12-16T09:03:03.656Z,96533.61
2017-12-16T09:05:32.945Z,96538.69
2017-12-16T09:08:02.448Z,96545.23
2017-12-16T09:10:31.830Z,96551.27
2017-12-16T09:12:59.950Z,96554.76
2017-12-16T09:15:28.603Z,96563.67
2017-12-16T09:17:56.958Z,96569.17
2017-12-16T09:20:25.974Z,96581.83
2017-12-16T09:22:53.659Z,96585.06
2017-12-16T09:25:22.254Z,96595.89
2017-12-16T09:27:49.874Z,96603.08
2017-12-16T09:30:19.110Z,96608.50
2017-12-16T09:32:47.376Z,96615.30
2017-12-16T09:35:16.346Z,96617.30
2017-12-16T09:37:43.909Z,96620.73
2017-12-16T09:40:12.795Z,96623.87
2017-12-16T09:42:40.311Z,96621.66
2017-12-16T09:45:08.426Z,96625.36
2017-12-16T09:47:36.083Z,96625.59
2017-12-16T09:50:03.600Z,96635.48
2017-12-16T09:52:31.723Z,96635.25
2017-12-16T09:54:59.313Z,96632.87
2017-12-16T09:57:26.846Z,96638.73
2017-12-16T09:59:54.580Z,96648.14
2017-12-16T10:02:22.102Z,96646.81
2017-12-16T10:04:49.739Z,96653.23
2017-12-16T10:07:17.398Z,96651.55
2017-12-16T10:09:44.939Z,96656.84
2017-12-16T10:12:13.113Z,96658.84
2017-12-16T10:14:40.662Z,96665.53
2017-12-16T10:17:08.231Z,96665.45
2017-12-16T10:19:35.790Z,96673.02
2017-12-16T10:22:03.384Z,96674.06
2017-12-16T10:24:31.215Z,96672.41
2017-12-16T10:26:59.082Z,96677.70
2017-12-16T10:29:26.938Z,96679.60
2017-12-16T10:31:56.133Z,96686.50
2017-12-16T10:34:23.675Z,96689.52
2017-12-16T10:36:51.254Z,96695.78
2017-12-16T10:39:18.768Z,96695.62
2017-12-16T10:41:48.297Z,96699.22
2017-12-16T10:44:16.553Z,96701.56
2017-12-16T10:46:45.186Z,96700.16
2017-12-16T10:49:13.067Z,96708.94
2017-12-16T10:51:41.645Z,96711.03
2017-12-16T10:54:09.399Z,96708.47
2017-12-16T10:56:37.674Z,96707.77
2017-12-16T10:59:06.802Z,96712.69
2017-12-16T11:01:34.632Z,96711.28
2017-12-16T11:04:02.156Z,96711.27
2017-12-16T11:06:30.078Z,96719.84
2017-12-16T11:08:58.383Z,96720.20
2017-12-16T11:11:25.920Z,96721.83
2017-12-16T11:13:53.530Z,96725.38
2017-12-16T11:16:21.214Z,96729.13
2017-12-16T11:18:49.089Z,96728.73
2017-12-16T11:21:17.056Z,96737.67
2017-12-16T11:23:46.691Z,96728.87
2017-12-16T11:26:14.433Z,96733.06
2017-12-16T11:28:42.804Z,96736.82
2017-12-16T11:31:10.475Z,96743.45
2017-12-16T11:33:38.128Z,96743.77
2017-12-16T11:36:06.404Z,96741.61
2017-12-16T11:38:34.072Z,96742.81
2017-12-16T11:41:01.831Z,96752.35
2017-12-16T11:43:29.593Z,96753.15
2017-12-16T11:45:57.372Z,96759.50
2017-12-16T11:48:25.022Z,96765.33
2017-12-16T11:50:53.690Z,96763.32
2017-12-16T11:53:21.477Z,96765.12
2017-12-16T11:55:49.232Z,96763.16
2017-12-16T11:58:16.999Z,96766.30
2017-12-16T12:00:44.760Z,96765.02
2017-12-16T12:03:12.535Z,96762.66
2017-12-16T12:05:40.390Z,96761.32
2017-12-16T12:08:08.003Z,96765.61
2017-12-16T12:10:35.714Z,96767.25
2017-12-16T12:13:03.637Z,96773.52
2017-12-16T12:15:31.162Z,96779.82
2017-12-16T12:17:58.697Z,96778.48
2017-12-16T12:20:26.313Z,96777.52
2017-12-16T12:22:53.903Z,96781.28
2017-12-16T12:25:21.580Z,96786.38
2017-12-16T12:27:49.260Z,96792.97
2017-12-16T12:30:17.008Z,96794.27
2017-12-16T12:32:44.583Z,96793.05
2017-12-16T12:35:12.227Z,96795.78
2017-12-16T12:37:40.399Z,96794.50
2017-12-16T12:40:08.068Z,96791.56
2017-12-16T12:42:35.656Z,96794.30
2017-12-16T12:45:03.384Z,96805.55
2017-12-16T12:47:30.964Z,96803.84
2017-12-16T12:49:58.912Z,96791.70
2017-12-16T12:52:26.570Z,96794.45
2017-12-16T12:54:54.166Z,96799.38
2017-12-16T12:57:21.760Z,96795.78
2017-12-16T12:59:49.559Z,96789.53
2017-12-16T13:02:19.065Z,96783.76
2017-12-16T13:04:46.715Z,96790.27
2017-12-16T13:07:14.230Z,96787.81
2017-12-16T13:09:41.753Z,96793.23
2017-12-16T13:12:09.371Z,96795.48
2017-12-16T13:14:36.894Z,96800.36
2017-12-16T13:17:04.443Z,96808.14
2017-12-16T13:19:31.991Z,96802.80
2017-12-16T13:21:59.587Z,96808.45
2017-12-16T13:24:27.182Z,96810.67
2017-12-16T13:26:54.957Z,96821.02
2017-12-16T13:29:22.475Z,96817.97
2017-12-16T13:31:50.086Z,96822.45
2017-12-16T13:34:18.478Z,96829.45
2017-12-16T13:36:46.034Z,96834.75
2017-12-16T13:39:13.674Z,96835.75
2017-12-16T13:41:41.442Z,96831.19
2017-12-16T13:44:08.950Z,96841.81
2017-12-16T13:46:36.462Z,96844.53
2017-12-16T13:49:04.346Z,96836.02
2017-12-16T13:51:32.199Z,96844.12
2017-12-16T13:53:59.741Z,96856.55
2017-12-16T13:56:27.437Z,96845.97
2017-12-16T13:58:55.175Z,96851.31
2017-12-16T14:01:22.737Z,96859.69
2017-12-16T14:03:50.396Z,96863.56
2017-12-16T14:06:17.913Z,96868.89
2017-12-16T14:08:45.425Z,96877.73
2017-12-16T14:11:13.549Z,96880.91
2017-12-16T14:13:41.066Z,96883.53
2017-12-16T14:16:08.657Z,96886.88
2017-12-16T14:18:36.363Z,96890.55
2017-12-16T14:21:03.878Z,96893.98
2017-12-16T14:23:31.385Z,96908.75
2017-12-16T14:25:59.147Z,96912.52
2017-12-16T14:28:26.744Z,96916.94
2017-12-16T14:30:54.569Z,96922.77
2017-12-16T14:33:22.539Z,96927.14
2017-12-16T14:35:50.200Z,96930.91
2017-12-16T14:38:17.910Z,96935.20
2017-12-16T14:40:45.458Z,96937.66
2017-12-16T14:43:12.996Z,96942.45
2017-12-16T14:45:40.530Z,96943.80
2017-12-16T14:48:08.302Z,96946.45
2017-12-16T14:50:35.860Z,96955.66
2017-12-16T14:53:03.370Z,96962.42
2017-12-16T14:55:31.388Z,96958.58
2017-12-16T14:57:58.948Z,96957.53
2017-12-16T15:00:26.458Z,96952.00
2017-12-16T15:02:54.270Z,96953.39
2017-12-16T15:05:21.935Z,96962.11
2017-12-16T15:07:49.593Z,96968.44
2017-12-16T15:10:17.158Z,96980.59
2017-12-16T15:12:44.757Z,96976.80
2017-12-16T15:15:12.295Z,96989.42
2017-12-16T15:17:39.884Z,96993.45
2017-12-16T15:20:07.594Z,96995.04
2017-12-16T15:22:35.270Z,96990.81
2017-12-16T15:25:03.123Z,96994.04
2017-12-16T15:27:30.782Z,96993.45
2017-12-16T15:29:58.350Z,96995.65
2017-12-16T15:32:25.894Z,96999.66
2017-12-16T15:34:53.563Z,97005.20
2017-12-16T15:37:21.140Z,97007.95
2017-12-16T15:39:48.885Z,97008.25
2017-12-16T15:42:17.371Z,97006.28
2017-12-16T15:44:47.808Z,97007.64
2017-12-16T15:47:15.658Z,97007.77
2017-12-16T15:49:43.406Z,97015.70
2017-12-16T15:52:12.108Z,97020.42
2017-12-16T15:54:39.856Z,97024.97
2017-12-16T15:57:07.596Z,97027.95
2017-12-16T15:59:35.236Z,97031.19
2017-12-16T16:02:02.906Z,97039.39
2017-12-16T16:04:30.439Z,97040.59
2017-12-16T16:06:58.077Z,97046.91
2017-12-16T16:09:25.739Z,97047.08
2017-12-16T16:11:53.502Z,97045.73
2017-12-16T16:14:21.118Z,97045.33
2017-12-16T16:16:50.003Z,97042.68
2017-12-16T16:19:17.721Z,97047.64
2017-12-16T16:21:45.781Z,97050.98
2017-12-16T16:24:13.632Z,97058.33
2017-12-16T16:26:41.315Z,97064.38
2017-12-16T16:29:09.067Z,97071.09
2017-12-16T16:31:36.673Z,97068.31
2017-12-16T16:34:04.967Z,97063.20
2017-12-16T16:36:33.293Z,97064.09
2017-12-16T16:39:01.775Z,97071.05
2017-12-16T16:41:29.564Z,97074.92
2017-12-16T16:43:57.300Z,97078.39
2017-12-16T16:46:26.185Z,97081.59
2017-12-16T16:51:21.784Z,97077.14
2017-12-16T16:53:49.403Z,97079.42
2017-12-16T16:56:17.077Z,97085.60
2017-12-16T16:58:45.112Z,97095.72
2017-12-16T17:01:14.338Z,97090.66
2017-12-16T17:03:42.026Z,97092.23
2017-12-16T17:06:10.056Z,97096.87
2017-12-16T17:08:38.817Z,97100.84
2017-12-16T17:11:07.518Z,97106.56
2017-12-16T17:13:36.626Z,97104.39
2017-12-16T17:16:05.917Z,97109.12
2017-12-16T17:18:33.748Z,97108.66
2017-12-16T17:21:02.262Z,97111.03
2017-12-16T17:23:30.332Z,97116.92
2017-12-16T17:25:58.913Z,97119.77
2017-12-16T17:28:26.984Z,97130.80
2017-12-16T17:30:54.889Z,97134.64
2017-12-16T17:33:23.947Z,97136.27
2017-12-16T17:35:51.713Z,97147.12
2017-12-16T17:40:47.237Z,97154.61
2017-12-16T17:43:14.811Z,97161.59
2017-12-16T17:45:44.765Z,97156.48
2017-12-16T17:48:13.460Z,97167.77
2017-12-16T17:50:41.218Z,97162.54
2017-12-16T17:53:09.322Z,97166.34
2017-12-16T17:55:36.841Z,97163.76
2017-12-16T17:58:04.555Z,97160.66
2017-12-16T18:00:33.021Z,97170.64
2017-12-16T18:03:00.595Z,97166.69
2017-12-16T18:05:28.464Z,97172.46
2017-12-16T18:07:56.235Z,97176.30
2017-12-16T18:10:23.851Z,97181.13
2017-12-16T18:12:52.076Z,97190.56
2017-12-16T18:15:19.926Z,97184.95
2017-12-16T18:17:47.559Z,97188.78
2017-12-16T18:20:15.235Z,97195.22
2017-12-16T18:22:43.054Z,97204.89
2017-12-16T18:25:10.584Z,97209.55
2017-12-16T18:27:38.290Z,97214.59
2017-12-16T18:30:06.801Z,97214.27
2017-12-16T18:32:34.828Z,97213.78
2017-12-16T18:35:02.548Z,97216.22
2017-12-16T18:37:30.725Z,97216.55
2017-12-16T18:39:58.492Z,97220.58
2017-12-16T18:42:26.086Z,97218.94
2017-12-16T18:44:53.809Z,97219.72
2017-12-16T18:47:21.578Z,97225.91
2017-12-16T18:49:49.338Z,97225.98
2017-12-16T18:52:17.105Z,97234.17
2017-12-16T18:54:44.677Z,97243.00
2017-12-16T18:57:12.258Z,97241.72
2017-12-16T18:59:40.200Z,97244.19
2017-12-16T19:02:07.822Z,97250.09
2017-12-16T19:04:36.432Z,97250.56
2017-12-16T19:07:04.373Z,97255.19
2017-12-16T19:09:33.943Z,97262.55
2017-12-16T19:12:02.415Z,97259.45
2017-12-16T19:14:33.327Z,97267.50
2017-12-16T19:17:00.914Z,97275.57
2017-12-16T19:19:28.552Z,97274.77
2017-12-16T19:21:56.521Z,97282.67
2017-12-16T19:24:24.077Z,97284.08
2017-12-16T19:26:51.824Z,97290.06
2017-12-16T19:29:19.446Z,97299.25
2017-12-16T19:31:47.180Z,97295.11
2017-12-16T19:34:15.028Z,97298.03
2017-12-16T19:36:42.997Z,97298.30
2017-12-16T19:39:10.565Z,97302.75
2017-12-16T19:41:39.077Z,97307.16
2017-12-16T19:44:07.415Z,97304.41
2017-12-16T19:46:35.588Z,97314.67
2017-12-16T19:49:03.454Z,97315.44
2017-12-16T19:51:31.475Z,97317.95
2017-12-16T19:53:59.083Z,97321.25
2017-12-16T19:56:27.565Z,97326.95
2017-12-16T19:58:55.554Z,97324.28
2017-12-16T20:01:23.262Z,97314.07
2017-12-16T20:03:50.910Z,97324.77
2017-12-16T20:06:19.027Z,97317.34
2017-12-16T20:08:46.692Z,97319.13
2017-12-16T20:11:14.577Z,97327.33
2017-12-16T20:13:42.527Z,97326.16
2017-12-16T20:16:10.290Z,97325.95
2017-12-16T20:18:38.057Z,97332.68
2017-12-16T20:21:05.924Z,97330.45
2017-12-16T20:23:33.703Z,97333.72
2017-12-16T20:26:01.448Z,97327.66
2017-12-16T20:28:29.622Z,97337.70
2017-12-16T20:30:57.488Z,97345.39
2017-12-16T20:33:25.341Z,97344.45
2017-12-16T20:35:54.245Z,97349.53
2017-12-16T20:38:22.009Z,97355.87
2017-12-16T20:40:49.772Z,97358.41
2017-12-16T20:43:17.758Z,97359.69
2017-12-16T20:45:45.629Z,97349.43
2017-12-16T20:48:13.681Z,97346.27
2017-12-16T20:50:41.722Z,97353.48
2017-12-16T20:53:10.144Z,97350.07
2017-12-16T20:55:37.905Z,97348.30
2017-12-16T20:58:05.821Z,97345.79
2017-12-16T21:00:33.776Z,97344.59
2017-12-16T21:03:01.707Z,97342.09
2017-12-16T21:05:29.562Z,97345.28
2017-12-16T21:07:57.224Z,97344.06
2017-12-16T21:10:24.783Z,97352.47
2017-12-16T21:12:52.753Z,97349.63
2017-12-16T21:15:21.540Z,97349.99
2017-12-16T21:17:49.147Z,97352.39
2017-12-16T21:20:16.965Z,97357.12
2017-12-16T21:22:44.626Z,97355.00
2017-12-16T21:25:12.227Z,97352.97
2017-12-16T21:27:40.052Z,97355.73
2017-12-16T21:30:07.609Z,97354.80
2017-12-16T21:32:35.375Z,97360.56
2017-12-16T21:35:03.338Z,97361.42
2017-12-16T21:37:32.029Z,97365.16
2017-12-16T21:39:59.805Z,97358.52
2017-12-16T21:42:27.868Z,97363.07
2017-12-16T21:44:55.525Z,97371.39
2017-12-16T21:47:23.188Z,97371.10
2017-12-16T21:49:51.257Z,97368.42
2017-12-16T21:52:18.849Z,97375.48
2017-12-16T21:54:46.581Z,97372.59
2017-12-16T21:57:14.203Z,97370.53
2017-12-16T21:59:42.621Z,97373.34
2017-12-16T22:02:10.589Z,97377.16
2017-12-16T22:04:38.766Z,97380.73
2017-12-16T22:07:07.141Z,97375.73
2017-12-16T22:09:34.713Z,97380.84
2017-12-16T22:12:03.435Z,97385.73
2017-12-16T22:14:30.992Z,97384.59
2017-12-16T22:16:59.733Z,97391.70
2017-12-16T22:19:27.306Z,97394.17
2017-12-16T22:21:54.953Z,97399.85
2017-12-16T22:24:22.515Z,97396.44
2017-12-16T22:26:50.148Z,97401.19
2017-12-16T22:29:17.685Z,97398.71
2017-12-16T22:31:45.317Z,97408.30
2017-12-16T22:34:13.982Z,97407.94
2017-12-16T22:36:41.531Z,97403.31
2017-12-16T22:39:09.090Z,97402.00
2017-12-16T22:41:37.154Z,97405.31
2017-12-16T22:44:04.742Z,97402.47
2017-12-16T22:46:33.210Z,97407.54
2017-12-16T22:49:01.071Z,97408.38
2017-12-16T22:51:28.588Z,97407.56
2017-12-16T22:53:56.151Z,97416.00
2017-12-16T22:56:23.925Z,97416.41
2017-12-16T22:58:59.113Z,97410.07
2017-12-16T23:01:26.654Z,97424.69
2017-12-16T23:03:55.132Z,97425.70
2017-12-16T23:06:23.145Z,97431.02
2017-12-16T23:08:51.406Z,97429.44
2017-12-16T23:11:19.040Z,97427.70
2017-12-16T23:13:46.608Z,97431.31
2017-12-16T23:16:14.451Z,97432.48
2017-12-16T23:18:42.228Z,97432.03
2017-12-16T23:21:09.870Z,97433.52
2017-12-16T23:23:37.767Z,97435.61
2017-12-16T23:26:05.325Z,97430.84
2017-12-16T23:28:32.916Z,97431.94
2017-12-16T23:31:00.542Z,97439.73
2017-12-16T23:33:28.303Z,97430.00
2017-12-16T23:35:56.183Z,97432.57
2017-12-16T23:38:24.367Z,97432.13
2017-12-16T23:40:52.821Z,97435.59
2017-12-16T23:43:20.422Z,97437.34
2017-12-16T23:45:48.176Z,97439.02
2017-12-16T23:48:15.701Z,97435.50
2017-12-16T23:50:44.082Z,97441.11
2017-12-16T23:53:12.152Z,97437.48
2017-12-16T23:55:39.785Z,97439.98
2017-12-16T23:58:08.089Z,97440.23
